Time;durP1;ratioP1;P1;durP2;ratioP2;P2;SDS_P1;SDS_P2;PMS_P1;PMS_P2;Temp;Humidity;BMP_temperature;BMP_pressure;BME280_temperature;BME280_humidity;BME280_pressure;Samples;Min_cycle;Max_cycle;Signal;HPM_P1;HPM_P2
2022/11/26 00:02:16;;;;;;;81.53;9.27;;;4.70;99.90;;;;;;4878947;29;20056;-70
2022/11/26 00:04:42;;;;;;;89.13;9.18;;;4.70;99.90;;;;;;4878466;29;20048;-70
2022/11/26 00:07:11;;;;;;;132.00;10.10;;;4.60;99.90;;;;;;4879004;29;20100;-68
2022/11/26 00:09:37;;;;;;;40.33;5.18;;;4.60;99.90;;;;;;4878409;29;20045;-68
2022/11/26 00:12:22;;;;;;;15.18;5.60;;;4.60;99.90;;;;;;4878965;29;20052;-69
2022/11/26 00:14:48;;;;;;;30.65;5.60;;;4.70;99.90;;;;;;4878929;29;20639;-69
2022/11/26 00:17:15;;;;;;;20.00;6.25;;;4.80;99.90;;;;;;4878727;29;20132;-74
2022/11/26 00:19:42;;;;;;;18.63;5.80;;;4.90;99.90;;;;;;4877986;29;20064;-69
2022/11/26 00:22:44;;;;;;;20.25;6.03;;;4.90;99.90;;;;;;4878495;29;20053;-69
2022/11/26 00:25:16;;;;;;;38.45;6.70;;;4.90;99.90;;;;;;4880869;29;20116;-69
2022/11/26 00:27:42;;;;;;;19.73;5.93;;;4.90;99.90;;;;;;4897408;29;20478;-69
2022/11/26 00:30:23;;;;;;;21.55;6.10;;;5.00;99.90;;;;;;4897188;29;20052;-69
2022/11/26 00:32:50;;;;;;;12.05;5.85;;;4.90;99.90;;;;;;4897261;29;20055;-69
2022/11/26 00:35:16;;;;;;;;;;;5.00;99.90;;;;;;4895468;29;20048;-74
2022/11/26 00:37:48;;;;;;;24.73;6.30;;;5.00;99.90;;;;;;4896760;29;20290;-69
2022/11/26 00:40:22;;;;;;;44.70;7.72;;;4.90;99.90;;;;;;4896457;29;20080;-69
2022/11/26 00:42:48;;;;;;;26.13;5.90;;;4.90;99.90;;;;;;4897044;29;20047;-69
2022/11/26 00:45:16;;;;;;;20.63;5.85;;;5.00;99.90;;;;;;4896993;29;20131;-69
2022/11/26 00:47:42;;;;;;;53.55;7.82;;;4.80;99.90;;;;;;4895814;29;20044;-69
2022/11/26 00:50:12;;;;;;;27.35;5.35;;;4.80;99.90;;;;;;4896344;29;20054;-68
2022/11/26 00:52:38;;;;;;;18.55;6.05;;;5.20;99.90;;;;;;4896236;29;20036;-69
2022/11/26 00:55:14;;;;;;;19.42;6.25;;;4.70;99.90;;;;;;4896503;29;20059;-71
2022/11/26 00:57:39;;;;;;;21.02;7.28;;;4.70;99.90;;;;;;4896435;29;20049;-69
2022/11/26 01:00:16;;;;;;;13.23;5.85;;;4.70;99.90;;;;;;4896742;29;20055;-71
2022/11/26 01:02:41;;;;;;;18.67;6.50;;;4.70;99.90;;;;;;4896199;29;20055;-69
2022/11/26 01:05:07;;;;;;;23.90;7.30;;;4.70;99.90;;;;;;4896093;29;20049;-70
2022/11/26 01:07:34;;;;;;;18.27;7.30;;;4.70;99.90;;;;;;4896128;29;20055;-70
2022/11/26 01:09:59;;;;;;;32.10;7.38;;;4.70;99.90;;;;;;4896420;29;20053;-69
2022/11/26 01:12:25;;;;;;;40.13;7.75;;;4.70;99.90;;;;;;4896308;29;20059;-69
2022/11/26 01:14:51;;;;;;;38.88;7.93;;;4.70;99.90;;;;;;4896520;29;20052;-69
2022/11/26 01:17:16;;;;;;;28.77;6.57;;;4.70;99.90;;;;;;4896300;29;20128;-69
2022/11/26 01:19:42;;;;;;;18.75;6.97;;;4.60;99.90;;;;;;4895750;29;20052;-69
2022/11/26 01:22:19;;;;;;;35.75;7.38;;;4.60;99.90;;;;;;4896225;29;20476;-69
2022/11/26 01:24:45;;;;;;;27.75;6.35;;;4.90;99.90;;;;;;4895564;29;20535;-69
2022/11/26 01:27:12;;;;;;;26.58;7.00;;;4.50;99.90;;;;;;4896080;29;20143;-69
2022/11/26 01:29:37;;;;;;;;;;;4.50;99.90;;;;;;4896538;29;20048;-69
2022/11/26 01:32:03;;;;;;;21.65;7.28;;;4.40;99.90;;;;;;4896167;29;19931;-69
2022/11/26 01:34:29;;;;;;;;;;;4.40;99.90;;;;;;4895965;29;20534;-69
2022/11/26 01:36:55;;;;;;;15.68;6.60;;;4.40;99.90;;;;;;4896193;29;20014;-69
2022/11/26 01:39:22;;;;;;;23.77;8.10;;;4.40;99.90;;;;;;4896211;29;20210;-71
2022/11/26 01:42:04;;;;;;;30.02;7.75;;;4.90;99.90;;;;;;4896232;29;20096;-68
2022/11/26 01:44:33;;;;;;;43.38;7.70;;;4.40;99.90;;;;;;4895905;29;20556;-70
2022/11/26 01:47:00;;;;;;;66.25;11.10;;;4.80;99.90;;;;;;4895238;29;20056;-70
2022/11/26 01:49:32;;;;;;;40.13;8.98;;;4.40;99.90;;;;;;4895587;29;20131;-69
2022/11/26 01:52:22;;;;;;;18.02;8.00;;;4.30;99.90;;;;;;4896290;29;20041;-69
2022/11/26 01:54:49;;;;;;;25.00;7.53;;;4.30;99.90;;;;;;4895697;29;20060;-69
2022/11/26 01:57:20;;;;;;;21.90;8.15;;;4.30;99.90;;;;;;4896229;29;20129;-69
2022/11/26 01:59:52;;;;;;;50.20;8.80;;;4.50;99.90;;;;;;4895930;29;20067;-69
2022/11/26 02:02:21;;;;;;;20.35;7.65;;;4.30;99.90;;;;;;4896247;29;20063;-70
2022/11/26 02:05:23;;;;;;;22.00;5.85;;;4.20;99.90;;;;;;4895326;29;20059;-68
2022/11/26 02:07:50;;;;;;;20.38;7.80;;;4.20;99.90;;;;;;4886674;29;20503;-70
2022/11/26 02:10:16;;;;;;;17.70;7.03;;;4.10;99.90;;;;;;4896057;29;20052;-68
2022/11/26 02:12:42;;;;;;;;;;;4.10;99.90;;;;;;4896297;29;20049;-69
2022/11/26 02:15:09;;;;;;;20.70;7.93;;;4.10;99.90;;;;;;4896119;29;19980;-69
2022/11/26 02:17:42;;;;;;;19.50;7.97;;;4.20;99.90;;;;;;4895757;29;20049;-69
2022/11/26 02:20:26;;;;;;;23.63;8.48;;;4.20;99.90;;;;;;4895730;29;20055;-69
2022/11/26 02:23:31;;;;;;;25.05;9.27;;;4.20;99.90;;;;;;4895513;29;20486;-70
2022/11/26 02:26:58;;;;;;;27.92;8.70;;;4.30;99.90;;;;;;4895920;29;20067;-68
2022/11/26 02:29:48;;;;;;;19.25;7.85;;;4.30;99.90;;;;;;4869155;29;20189;-69
2022/11/26 02:32:20;;;;;;;16.42;6.97;;;4.30;99.90;;;;;;4877751;29;20069;-69
2022/11/26 02:34:55;;;;;;;17.33;7.50;;;4.30;99.90;;;;;;4894881;29;20188;-69
2022/11/26 02:37:33;;;;;;;21.63;7.20;;;4.40;99.90;;;;;;4897598;29;20109;-69
2022/11/26 02:39:59;;;;;;;17.52;7.50;;;4.30;99.90;;;;;;4899175;29;20049;-69
2022/11/26 02:42:27;;;;;;;20.33;7.15;;;4.20;99.90;;;;;;4899302;29;20067;-70
2022/11/26 02:44:57;;;;;;;15.80;7.00;;;4.40;99.90;;;;;;4898408;29;20055;-69
2022/11/26 02:47:26;;;;;;;14.73;7.13;;;4.20;99.90;;;;;;4899237;29;20045;-69
2022/11/26 02:49:54;;;;;;;18.88;7.70;;;4.20;99.90;;;;;;4898306;29;20379;-69
2022/11/26 02:52:21;;;;;;;29.20;8.60;;;4.20;99.90;;;;;;4898669;29;20048;-69
2022/11/26 02:54:48;;;;;;;16.95;7.35;;;4.20;99.90;;;;;;4898446;29;20384;-70
2022/11/26 02:57:17;;;;;;;38.15;8.32;;;4.10;99.90;;;;;;4898800;29;20628;-69
2022/11/26 02:59:43;;;;;;;21.33;7.50;;;4.10;99.90;;;;;;4898356;29;20123;-69
2022/11/26 03:02:32;;;;;;;;;;;4.10;99.90;;;;;;4898067;29;20440;-69
2022/11/26 03:05:01;;;;;;;37.72;9.75;;;4.00;99.90;;;;;;4898430;29;19923;-69
2022/11/26 03:07:29;;;;;;;43.85;8.80;;;4.00;99.90;;;;;;4898672;29;20049;-69
2022/11/26 03:10:00;;;;;;;67.72;10.35;;;4.00;99.90;;;;;;4898231;29;20053;-69
2022/11/26 03:12:27;;;;;;;59.53;9.10;;;3.90;99.90;;;;;;4898870;29;20171;-69
2022/11/26 03:14:53;;;;;;;51.20;8.10;;;3.80;99.90;;;;;;4898281;29;20373;-70
2022/11/26 03:17:18;;;;;;;51.10;9.05;;;4.00;99.90;;;;;;4898709;29;20052;-71
2022/11/26 03:19:45;;;;;;;47.80;8.43;;;3.70;99.90;;;;;;4897806;29;20053;-70
2022/11/26 03:22:12;;;;;;;37.08;8.85;;;3.70;99.90;;;;;;4898023;29;20137;-69
2022/11/26 03:24:38;;;;;;;71.43;9.20;;;3.70;99.90;;;;;;4897944;29;20052;-69
2022/11/26 03:27:04;;;;;;;39.88;9.30;;;3.80;99.90;;;;;;4898277;29;20056;-69
2022/11/26 03:29:30;;;;;;;;;;;3.80;99.90;;;;;;4898851;29;20063;-70
2022/11/26 03:31:56;;;;;;;25.90;8.73;;;3.80;99.90;;;;;;4898407;29;19923;-69
2022/11/26 03:34:22;;;;;;;37.20;8.68;;;3.80;99.90;;;;;;4896463;29;20068;-69
2022/11/26 03:36:47;;;;;;;37.75;10.02;;;4.00;99.90;;;;;;4898048;29;20049;-68
2022/11/26 03:39:13;;;;;;;90.85;11.48;;;3.90;99.90;;;;;;4897906;29;20048;-69
2022/11/26 03:41:42;;;;;;;96.68;12.50;;;3.90;99.90;;;;;;4897857;29;20204;-69
2022/11/26 03:44:09;;;;;;;52.38;10.63;;;3.80;99.90;;;;;;4898144;29;20135;-70
2022/11/26 03:46:35;;;;;;;113.32;11.35;;;3.70;99.90;;;;;;4898027;29;20049;-74
2022/11/26 03:49:00;;;;;;;89.57;13.13;;;3.70;99.90;;;;;;4896234;29;20109;-68
2022/11/26 03:51:26;;;;;;;116.60;10.32;;;3.60;99.90;;;;;;4897659;29;20057;-69
2022/11/26 03:53:52;;;;;;;76.28;8.88;;;3.60;99.90;;;;;;4897448;29;20044;-70
2022/11/26 03:56:17;;;;;;;76.32;8.35;;;3.70;99.90;;;;;;4897844;29;20056;-69
2022/11/26 03:58:43;;;;;;;146.27;11.52;;;3.60;99.90;;;;;;4897459;29;20056;-69
2022/11/26 04:01:11;;;;;;;77.15;11.30;;;3.60;99.90;;;;;;4897720;29;20131;-70
2022/11/26 04:03:37;;;;;;;56.78;7.93;;;3.60;99.90;;;;;;4897325;29;20151;-73
2022/11/26 04:06:03;;;;;;;30.08;8.50;;;3.60;99.90;;;;;;4896727;29;20139;-69
2022/11/26 04:08:29;;;;;;;45.50;8.95;;;3.60;99.90;;;;;;4896773;29;20518;-69
2022/11/26 04:10:55;;;;;;;36.50;8.70;;;3.60;99.90;;;;;;4895875;29;20053;-69
2022/11/26 04:13:20;;;;;;;27.27;8.25;;;3.70;99.90;;;;;;4897594;29;20120;-69
2022/11/26 04:15:47;;;;;;;27.70;8.57;;;3.70;99.90;;;;;;4896831;29;20058;-69
2022/11/26 04:18:13;;;;;;;31.10;8.55;;;3.70;99.90;;;;;;4897288;29;20049;-69
2022/11/26 04:20:39;;;;;;;35.53;7.80;;;3.70;99.90;;;;;;4896984;29;20096;-74
2022/11/26 04:23:05;;;;;;;83.72;10.65;;;3.80;99.90;;;;;;4897375;29;20045;-70
2022/11/26 04:25:30;;;;;;;52.53;9.23;;;3.90;99.90;;;;;;4895673;29;20056;-69
2022/11/26 04:27:56;;;;;;;49.72;9.60;;;3.90;99.90;;;;;;4897042;29;20143;-69
2022/11/26 04:30:22;;;;;;;37.10;9.07;;;3.80;99.90;;;;;;4897149;29;20056;-69
2022/11/26 04:32:48;;;;;;;79.07;10.57;;;3.80;99.90;;;;;;4896801;29;20047;-69
2022/11/26 04:35:13;;;;;;;95.28;12.63;;;4.10;99.90;;;;;;4896528;29;20176;-69
2022/11/26 04:37:39;;;;;;;66.80;11.07;;;3.70;99.90;;;;;;4896695;29;20092;-69
2022/11/26 04:40:06;;;;;;;49.67;8.57;;;3.70;99.90;;;;;;4896551;29;20048;-69
2022/11/26 04:42:32;;;;;;;124.20;11.57;;;3.70;99.90;;;;;;4895722;29;20059;-69
2022/11/26 04:44:57;;;;;;;65.90;11.23;;;3.60;99.90;;;;;;4895323;29;20044;-69
2022/11/26 04:47:23;;;;;;;63.08;9.43;;;3.70;99.90;;;;;;4897084;29;20080;-69
2022/11/26 04:49:49;;;;;;;60.17;12.48;;;3.70;99.90;;;;;;4896230;29;20054;-69
2022/11/26 04:52:14;;;;;;;55.88;10.48;;;3.70;99.90;;;;;;4896845;29;20040;-70
2022/11/26 04:54:40;;;;;;;105.57;11.05;;;3.60;99.90;;;;;;4896707;29;20289;-69
2022/11/26 04:57:06;;;;;;;94.43;12.13;;;3.60;99.90;;;;;;4896020;29;20048;-69
2022/11/26 04:59:31;;;;;;;67.40;10.73;;;3.60;99.90;;;;;;4896278;29;20212;-69
2022/11/26 05:01:58;;;;;;;64.68;10.48;;;3.50;99.90;;;;;;4896419;29;20530;-69
2022/11/26 05:04:25;;;;;;;55.08;10.05;;;3.50;99.90;;;;;;4895786;29;20581;-69
2022/11/26 05:06:51;;;;;;;49.75;8.88;;;3.50;99.90;;;;;;4895141;29;20056;-69
2022/11/26 05:09:16;;;;;;;39.08;8.60;;;3.50;99.90;;;;;;4895500;29;20108;-70
2022/11/26 05:11:42;;;;;;;63.67;9.98;;;3.40;99.90;;;;;;4896471;29;20045;-69
2022/11/26 05:14:07;;;;;;;44.83;8.82;;;3.40;99.90;;;;;;4895380;29;20127;-69
2022/11/26 05:16:33;;;;;;;31.58;8.57;;;3.40;99.90;;;;;;4896662;29;20052;-70
2022/11/26 05:18:59;;;;;;;37.53;9.90;;;3.70;99.90;;;;;;4895094;29;20048;-70
2022/11/26 05:21:24;;;;;;;33.67;8.88;;;3.40;99.90;;;;;;4895417;29;20059;-69
2022/11/26 05:23:50;;;;;;;26.48;9.30;;;3.40;99.90;;;;;;4896277;29;20135;-70
2022/11/26 05:26:16;;;;;;;30.73;9.20;;;3.60;99.90;;;;;;4896489;29;20086;-68
2022/11/26 05:28:41;;;;;;;32.60;8.50;;;3.50;99.90;;;;;;4896485;29;20131;-69
2022/11/26 05:31:07;;;;;;;37.28;9.40;;;4.10;99.90;;;;;;4896096;29;20036;-70
2022/11/26 05:33:33;;;;;;;44.08;9.27;;;3.60;99.90;;;;;;4896537;29;20398;-70
2022/11/26 05:35:59;;;;;;;52.90;11.57;;;3.60;99.90;;;;;;4895493;29;20184;-69
2022/11/26 05:38:25;;;;;;;;;;;3.50;99.90;;;;;;4896619;29;20495;-70
2022/11/26 05:40:50;;;;;;;60.33;11.32;;;3.50;99.90;;;;;;4896090;29;19934;-69
2022/11/26 05:43:16;;;;;;;68.97;9.80;;;3.50;99.90;;;;;;4896498;29;20055;-69
2022/11/26 05:45:42;;;;;;;99.15;10.20;;;3.40;99.90;;;;;;4896206;29;20685;-69
2022/11/26 05:48:08;;;;;;;67.78;10.68;;;3.40;99.90;;;;;;4895990;29;20235;-68
2022/11/26 05:50:33;;;;;;;87.22;10.82;;;3.30;99.90;;;;;;4895941;29;20056;-69
2022/11/26 05:53:00;;;;;;;108.20;12.15;;;3.30;99.90;;;;;;4895633;29;20071;-69
2022/11/26 05:55:25;;;;;;;;;;;3.10;99.90;;;;;;4896626;29;20056;-69
2022/11/26 05:57:51;;;;;;;47.22;8.73;;;3.10;99.90;;;;;;4879275;29;20437;-74
2022/11/26 06:00:17;;;;;;;77.40;11.88;;;3.10;99.90;;;;;;4896166;29;20471;-69
2022/11/26 06:02:43;;;;;;;;;;;3.00;99.90;;;;;;4896440;29;20491;-69
2022/11/26 06:05:09;;;;;;;77.35;10.65;;;3.40;99.90;;;;;;4895098;29;19953;-70
2022/11/26 06:07:35;;;;;;;33.35;8.48;;;3.00;99.90;;;;;;4894893;29;20143;-70
2022/11/26 06:10:01;;;;;;;68.68;10.60;;;3.00;99.90;;;;;;4894383;29;20076;-69
2022/11/26 06:12:26;;;;;;;58.13;8.90;;;3.00;99.90;;;;;;4899863;29;20041;-70
2022/11/26 06:14:52;;;;;;;55.75;9.60;;;3.10;99.90;;;;;;4899173;29;20128;-74
2022/11/26 06:17:18;;;;;;;62.53;10.82;;;3.00;99.90;;;;;;4899803;29;20123;-69
2022/11/26 06:19:43;;;;;;;48.15;8.98;;;3.00;99.90;;;;;;4899056;29;20048;-70
2022/11/26 06:22:09;;;;;;;63.88;11.52;;;3.10;99.90;;;;;;4899044;29;20045;-69
2022/11/26 06:24:35;;;;;;;72.68;10.38;;;3.10;99.90;;;;;;4899501;29;20135;-69
2022/11/26 06:27:01;;;;;;;91.13;11.30;;;3.10;99.90;;;;;;4897659;29;20177;-72
2022/11/26 06:29:26;;;;;;;61.72;12.57;;;3.20;99.90;;;;;;4899349;29;20100;-69
2022/11/26 06:31:52;;;;;;;62.03;11.95;;;3.70;99.90;;;;;;4899303;29;20052;-74
2022/11/26 06:34:18;;;;;;;87.15;11.38;;;3.30;99.90;;;;;;4898811;29;20087;-69
2022/11/26 06:36:43;;;;;;;120.85;15.18;;;3.30;99.90;;;;;;4899337;29;20048;-69
2022/11/26 06:39:10;;;;;;;72.68;13.23;;;3.40;99.90;;;;;;4898687;29;20135;-69
2022/11/26 06:41:36;;;;;;;69.28;12.10;;;3.40;99.90;;;;;;4899313;29;20041;-69
2022/11/26 06:44:02;;;;;;;70.50;14.02;;;3.40;99.90;;;;;;4898874;29;20059;-68
2022/11/26 06:46:28;;;;;;;127.07;14.65;;;3.40;99.90;;;;;;4899001;29;20052;-70
2022/11/26 06:48:54;;;;;;;61.40;12.90;;;3.40;99.90;;;;;;4899004;29;20055;-74
2022/11/26 06:51:20;;;;;;;102.18;14.13;;;3.40;99.90;;;;;;4898585;29;20049;-69
2022/11/26 06:53:47;;;;;;;49.60;11.68;;;3.50;99.90;;;;;;4898765;29;20127;-69
2022/11/26 06:56:14;;;;;;;75.80;13.10;;;3.50;99.90;;;;;;4898601;29;20061;-68
2022/11/26 06:58:40;;;;;;;127.93;15.23;;;3.50;99.90;;;;;;4898883;29;20052;-69
2022/11/26 07:01:08;;;;;;;57.95;12.70;;;3.70;99.90;;;;;;4898419;29;20045;-70
2022/11/26 07:03:34;;;;;;;67.68;11.98;;;3.60;99.90;;;;;;4898955;29;20059;-69
2022/11/26 07:05:59;;;;;;;58.00;10.98;;;3.60;99.90;;;;;;4897865;29;20053;-69
2022/11/26 07:08:25;;;;;;;56.97;12.30;;;3.70;99.90;;;;;;4898313;29;20117;-68
2022/11/26 07:10:51;;;;;;;61.70;14.88;;;3.80;99.90;;;;;;4898847;29;20060;-71
2022/11/26 07:13:17;;;;;;;50.03;12.68;;;3.70;99.90;;;;;;4898762;29;20100;-69
2022/11/26 07:15:42;;;;;;;63.78;12.82;;;4.40;99.90;;;;;;4897507;29;20044;-70
2022/11/26 07:18:08;;;;;;;42.50;13.52;;;3.80;99.90;;;;;;4898111;29;20115;-71
2022/11/26 07:20:35;;;;;;;60.70;12.73;;;3.80;99.90;;;;;;4897225;29;20044;-69
2022/11/26 07:23:01;;;;;;;44.40;12.88;;;3.80;99.90;;;;;;4895870;29;20049;-69
2022/11/26 07:25:28;;;;;;;40.50;12.18;;;3.90;99.90;;;;;;4897826;29;20525;-69
2022/11/26 07:27:54;;;;;;;52.85;13.98;;;4.00;99.90;;;;;;4898408;29;20095;-70
2022/11/26 07:30:20;;;;;;;59.88;12.50;;;4.00;99.90;;;;;;4897564;29;20116;-70
2022/11/26 07:32:45;;;;;;;59.63;13.13;;;4.00;99.90;;;;;;4898252;29;20047;-69
2022/11/26 07:35:11;;;;;;;47.42;13.40;;;4.00;99.90;;;;;;4897252;29;20502;-69
2022/11/26 07:37:37;;;;;;;117.05;14.48;;;4.30;99.90;;;;;;4898059;29;20056;-68
2022/11/26 07:40:04;;;;;;;178.30;15.80;;;4.10;99.90;;;;;;4897416;29;20478;-70
2022/11/26 07:42:31;;;;;;;84.90;12.73;;;4.00;99.90;;;;;;4896774;29;20056;-69
2022/11/26 07:44:58;;;;;;;84.15;12.63;;;4.00;99.90;;;;;;4897986;29;20175;-68
2022/11/26 07:47:24;;;;;;;;;;;4.00;99.90;;;;;;4898129;29;20056;-68
2022/11/26 07:49:49;;;;;;;61.50;12.70;;;4.00;99.90;;;;;;4897640;29;19947;-68
2022/11/26 07:52:15;;;;;;;66.63;10.73;;;4.10;99.90;;;;;;4896884;29;20411;-69
2022/11/26 07:54:41;;;;;;;57.03;12.55;;;4.00;99.90;;;;;;4897472;29;20064;-69
2022/11/26 07:57:06;;;;;;;34.67;10.68;;;4.10;99.90;;;;;;4897741;29;20582;-68
2022/11/26 07:59:32;;;;;;;36.05;10.77;;;4.20;99.90;;;;;;4897622;29;20052;-68
2022/11/26 08:01:58;;;;;;;36.17;11.13;;;4.20;99.90;;;;;;4897306;29;20085;-69
2022/11/26 08:04:23;;;;;;;37.38;12.15;;;4.30;99.90;;;;;;4896762;29;20487;-69
2022/11/26 08:06:49;;;;;;;41.08;12.35;;;4.60;99.90;;;;;;4896649;29;20048;-69
2022/11/26 08:09:15;;;;;;;33.05;13.05;;;4.40;99.90;;;;;;4897282;29;20059;-70
2022/11/26 08:11:40;;;;;;;33.40;11.98;;;4.50;99.90;;;;;;4897803;29;20044;-69
2022/11/26 08:14:09;;;;;;;36.28;13.70;;;4.50;99.90;;;;;;4897503;29;20055;-69
2022/11/26 08:16:35;;;;;;;39.55;12.02;;;4.60;99.90;;;;;;4897242;29;20091;-70
2022/11/26 08:19:04;;;;;;;30.42;12.05;;;4.60;99.90;;;;;;4896858;29;20096;-74
2022/11/26 08:21:30;;;;;;;29.98;11.90;;;4.60;99.90;;;;;;4896791;29;20060;-70
2022/11/26 08:23:56;;;;;;;35.85;12.77;;;4.70;99.90;;;;;;4897218;29;20403;-69
2022/11/26 08:26:24;;;;;;;33.95;11.00;;;4.70;99.90;;;;;;4896340;29;20120;-69
2022/11/26 08:28:50;;;;;;;34.65;13.30;;;4.80;99.90;;;;;;4897126;29;20056;-69
2022/11/26 08:31:15;;;;;;;48.00;13.20;;;4.80;99.90;;;;;;4896612;29;20097;-69
2022/11/26 08:33:42;;;;;;;40.08;12.85;;;4.90;99.90;;;;;;4911027;29;20107;-69
2022/11/26 08:36:09;;;;;;;32.80;12.20;;;4.90;99.90;;;;;;4895567;29;20132;-68
2022/11/26 08:38:35;;;;;;;42.10;12.43;;;5.00;99.90;;;;;;4896985;29;20055;-69
2022/11/26 08:41:01;;;;;;;35.83;12.30;;;5.00;99.90;;;;;;4896826;29;20131;-69
2022/11/26 08:43:27;;;;;;;35.05;11.80;;;5.00;99.90;;;;;;4896461;29;20064;-69
2022/11/26 08:45:54;;;;;;;34.28;12.07;;;5.10;99.90;;;;;;4896729;29;20048;-69
2022/11/26 08:48:21;;;;;;;41.33;12.95;;;5.10;99.90;;;;;;4896308;29;20041;-73
2022/11/26 08:50:47;;;;;;;43.78;11.68;;;5.20;99.90;;;;;;4895593;29;20616;-70
2022/11/26 08:53:12;;;;;;;36.47;11.23;;;5.30;99.90;;;;;;4896023;29;20123;-72
2022/11/26 08:55:38;;;;;;;35.97;12.68;;;5.40;99.90;;;;;;4895645;29;20055;-68
2022/11/26 08:58:03;;;;;;;38.78;12.85;;;5.60;99.90;;;;;;4897028;29;20070;-74
2022/11/26 09:00:29;;;;;;;42.92;13.63;;;5.50;99.90;;;;;;4895285;29;20117;-69
2022/11/26 09:02:55;;;;;;;34.42;12.73;;;5.50;99.90;;;;;;4896596;29;20040;-70
2022/11/26 09:05:20;;;;;;;41.83;13.60;;;5.50;99.90;;;;;;4895411;29;20059;-70
2022/11/26 09:07:46;;;;;;;35.72;13.27;;;5.60;99.90;;;;;;4896144;29;20048;-68
2022/11/26 09:10:12;;;;;;;41.78;13.52;;;5.60;99.90;;;;;;4896179;29;20071;-69
2022/11/26 09:12:37;;;;;;;35.70;12.93;;;5.60;99.90;;;;;;4896485;29;20160;-68
2022/11/26 09:15:03;;;;;;;42.88;14.35;;;5.70;99.90;;;;;;4896498;29;20107;-69
2022/11/26 09:17:29;;;;;;;39.97;13.35;;;5.70;99.90;;;;;;4895723;29;20559;-68
2022/11/26 09:19:56;;;;;;;35.60;12.30;;;5.70;99.90;;;;;;4895837;29;20084;-69
2022/11/26 09:22:22;;;;;;;43.60;14.73;;;5.70;99.90;;;;;;4895491;29;20056;-68
2022/11/26 09:24:48;;;;;;;44.10;12.63;;;5.80;99.90;;;;;;4896277;29;20045;-69
2022/11/26 09:27:13;;;;;;;36.45;12.40;;;5.80;99.90;;;;;;4895886;29;20136;-70
2022/11/26 09:29:39;;;;;;;40.30;14.45;;;5.80;99.90;;;;;;4896076;29;20092;-70
2022/11/26 09:32:08;;;;;;;42.75;12.57;;;5.80;99.90;;;;;;4896083;29;20071;-69
2022/11/26 09:34:34;;;;;;;53.80;14.65;;;5.90;99.90;;;;;;4895342;29;20052;-69
2022/11/26 09:36:59;;;;;;;58.85;14.80;;;5.90;99.90;;;;;;4895966;29;20063;-69
2022/11/26 09:39:25;;;;;;;49.53;13.38;;;6.00;99.90;;;;;;4895622;29;20388;-71
2022/11/26 09:42:01;;;;;;;46.35;15.00;;;5.90;99.90;;;;;;4896234;29;20380;-69
2022/11/26 09:44:58;;;;;;;41.80;14.48;;;6.00;99.90;;;;;;4895772;29;20048;-69
2022/11/26 09:47:34;;;;;;;77.85;25.95;;;6.00;99.90;;;;;;4899268;29;20053;-69
2022/11/26 09:50:12;;;;;;;43.67;14.00;;;6.30;99.90;;;;;;4899132;29;20048;-69
2022/11/26 09:52:41;;;;;;;49.53;15.57;;;6.10;99.90;;;;;;4899249;29;20113;-70
2022/11/26 09:55:21;;;;;;;51.30;15.10;;;6.10;99.90;;;;;;4899569;29;20201;-70
2022/11/26 09:58:15;;;;;;;52.47;16.08;;;6.20;99.90;;;;;;4899499;29;20055;-69
2022/11/26 10:00:52;;;;;;;64.28;16.55;;;6.20;99.90;;;;;;4899422;29;20075;-68
2022/11/26 10:03:23;;;;;;;47.50;16.13;;;6.30;99.90;;;;;;4898988;29;20201;-70
2022/11/26 10:05:54;;;;;;;61.88;19.95;;;6.30;99.90;;;;;;4898796;29;20109;-70
2022/11/26 10:08:57;;;;;;;57.45;16.98;;;6.40;99.90;;;;;;4898650;29;20386;-69
2022/11/26 10:12:00;;;;;;;48.90;17.50;;;6.50;99.90;;;;;;4899106;29;20051;-70
2022/11/26 10:15:00;;;;;;;61.08;18.48;;;6.50;99.90;;;;;;4899337;29;20056;-69
2022/11/26 10:17:47;;;;;;;49.42;17.27;;;6.60;99.90;;;;;;4899433;29;20053;-69
2022/11/26 10:20:31;;;;;;;;;;;6.60;99.90;;;;;;4899062;29;20052;-74
2022/11/26 10:23:10;;;;;;;49.42;17.08;;;6.70;99.90;;;;;;4899418;29;19970;-69
2022/11/26 10:25:44;;;;;;;53.15;18.73;;;6.70;99.90;;;;;;4898454;29;20052;-69
2022/11/26 10:28:34;;;;;;;59.97;20.13;;;6.70;99.90;;;;;;4899679;29;20152;-69
2022/11/26 10:31:18;;;;;;;56.25;18.08;;;6.90;99.90;;;;;;4899062;29;20053;-72
2022/11/26 10:33:51;;;;;;;56.67;17.63;;;6.80;99.90;;;;;;4899538;29;20044;-69
2022/11/26 10:36:25;;;;;;;73.55;26.33;;;6.80;99.90;;;;;;4898221;29;20049;-69
2022/11/26 10:38:55;;;;;;;55.63;19.55;;;6.90;99.90;;;;;;4899317;29;20052;-69
2022/11/26 10:41:22;;;;;;;66.72;17.92;;;6.90;99.90;;;;;;4898442;29;20048;-69
2022/11/26 10:43:48;;;;;;;45.63;17.77;;;6.90;99.90;;;;;;4899095;29;20045;-69
2022/11/26 10:46:32;;;;;;;49.17;18.02;;;6.90;99.90;;;;;;4898386;29;20204;-74
2022/11/26 10:49:17;;;;;;;57.17;18.70;;;6.90;99.90;;;;;;4898302;29;20491;-70
2022/11/26 10:51:47;;;;;;;55.33;18.30;;;6.90;99.90;;;;;;4898442;29;20056;-69
2022/11/26 10:54:24;;;;;;;50.55;16.63;;;7.00;99.90;;;;;;4898549;29;20048;-68
2022/11/26 10:56:52;;;;;;;60.80;20.73;;;6.90;99.90;;;;;;4897218;29;20190;-75
2022/11/26 10:59:23;;;;;;;58.20;18.42;;;7.00;99.90;;;;;;4897104;29;20136;-72
2022/11/26 11:01:50;;;;;;;58.05;17.20;;;7.00;99.90;;;;;;4897673;29;20044;-70
2022/11/26 11:04:38;;;;;;;58.63;21.60;;;7.00;99.90;;;;;;4897254;29;20060;-75
2022/11/26 11:07:03;;;;;;;46.83;15.48;;;7.10;99.90;;;;;;4895871;29;20570;-72
2022/11/26 11:09:33;;;;;;;54.15;17.55;;;7.10;99.90;;;;;;4896904;29;20088;-69
2022/11/26 11:12:21;;;;;;;53.33;16.58;;;7.10;99.90;;;;;;4897547;29;20127;-69
2022/11/26 11:14:48;;;;;;;64.50;17.52;;;7.20;99.90;;;;;;4897370;29;20543;-69
2022/11/26 11:17:29;;;;;;;52.47;15.95;;;7.30;99.90;;;;;;4897326;29;20052;-71
2022/11/26 11:20:23;;;;;;;42.17;15.15;;;7.40;99.90;;;;;;4911449;29;20185;-69
2022/11/26 11:23:01;;;;;;;48.53;16.27;;;7.50;99.90;;;;;;4889303;29;20084;-70
2022/11/26 11:25:32;;;;;;;41.45;15.85;;;7.60;99.90;;;;;;4897003;29;20132;-69
2022/11/26 11:28:11;;;;;;;39.03;14.93;;;7.70;99.90;;;;;;4896909;29;20391;-69
2022/11/26 11:30:38;;;;;;;46.40;17.17;;;7.70;99.90;;;;;;4897162;29;20365;-70
2022/11/26 11:33:19;;;;;;;47.97;14.68;;;7.80;99.90;;;;;;4897278;29;20108;-72
2022/11/26 11:36:05;;;;;;;41.17;14.93;;;7.80;99.90;;;;;;4896898;29;20049;-69
2022/11/26 11:38:45;;;;;;;39.85;15.02;;;7.80;99.90;;;;;;4894997;29;20579;-70
2022/11/26 11:41:36;;;;;;;42.45;15.63;;;7.80;99.90;;;;;;4896871;29;20633;-69
2022/11/26 11:44:14;;;;;;;43.75;15.65;;;7.90;99.90;;;;;;4896404;29;20064;-69
2022/11/26 11:47:22;;;;;;;37.95;13.63;;;7.90;99.90;;;;;;4896320;29;20075;-71
2022/11/26 11:50:11;;;;;;;44.67;14.60;;;7.90;99.90;;;;;;4896305;29;20068;-70
2022/11/26 11:52:56;;;;;;;39.25;15.07;;;7.90;99.90;;;;;;4896359;29;20051;-69
2022/11/26 11:55:44;;;;;;;43.22;15.15;;;8.00;99.90;;;;;;4897032;29;20112;-74
2022/11/26 11:58:16;;;;;;;38.05;14.07;;;8.00;99.90;;;;;;4897778;29;20049;-68
2022/11/26 12:01:12;;;;;;;37.88;13.93;;;8.00;99.90;;;;;;4897477;29;20135;-69
2022/11/26 12:03:40;;;;;;;40.47;14.18;;;8.00;99.90;;;;;;4897370;29;20135;-70
2022/11/26 12:06:20;;;;;;;44.25;15.45;;;8.00;99.90;;;;;;4896865;29;20049;-69
2022/11/26 12:09:10;;;;;;;47.13;15.00;;;8.00;99.90;;;;;;4897152;29;20052;-70
2022/11/26 12:12:05;;;;;;;36.30;13.40;;;8.00;99.90;;;;;;4897262;29;20045;-69
2022/11/26 12:14:36;;;;;;;40.97;14.05;;;8.00;99.90;;;;;;4884254;29;20120;-71
2022/11/26 12:17:13;;;;;;;53.63;15.90;;;8.00;99.90;;;;;;4896727;29;20049;-70
2022/11/26 12:20:02;;;;;;;42.65;13.73;;;8.00;99.90;;;;;;4896677;29;20120;-70
2022/11/26 12:22:41;;;;;;;38.42;14.30;;;8.00;99.90;;;;;;4880005;29;20083;-68
2022/11/26 12:25:12;;;;;;;43.03;14.45;;;8.00;99.90;;;;;;4897425;29;20056;-69
2022/11/26 12:27:45;;;;;;;46.75;13.05;;;8.00;99.90;;;;;;4896781;29;20052;-69
2022/11/26 12:30:19;;;;;;;40.60;13.60;;;8.00;99.90;;;;;;4897363;29;20056;-68
2022/11/26 12:32:56;;;;;;;43.15;14.52;;;8.00;99.90;;;;;;4897080;29;20047;-70
2022/11/26 12:35:33;;;;;;;33.65;12.60;;;8.00;99.90;;;;;;4896808;29;20117;-70
2022/11/26 12:38:05;;;;;;;39.95;13.57;;;8.10;99.90;;;;;;4897208;29;20088;-69
2022/11/26 12:40:39;;;;;;;36.47;13.85;;;8.00;99.90;;;;;;4896482;29;20403;-69
2022/11/26 12:43:05;;;;;;;33.90;12.75;;;8.00;99.90;;;;;;4897262;29;20049;-69
2022/11/26 12:45:40;;;;;;;35.55;13.18;;;8.10;99.90;;;;;;4896094;29;20078;-69
2022/11/26 12:48:43;;;;;;;34.30;11.30;;;8.10;99.90;;;;;;4897197;29;20059;-70
2022/11/26 12:51:30;;;;;;;37.13;12.10;;;8.10;99.90;;;;;;4896229;29;20056;-69
2022/11/26 12:54:17;;;;;;;34.03;10.82;;;8.10;99.90;;;;;;4896822;29;20577;-69
2022/11/26 12:56:59;;;;;;;34.47;10.63;;;8.10;99.90;;;;;;4896709;29;20059;-69
2022/11/26 12:59:34;;;;;;;30.95;11.18;;;8.10;99.90;;;;;;4896729;29;20402;-69
2022/11/26 13:02:21;;;;;;;28.60;9.88;;;8.10;99.90;;;;;;4896789;29;20052;-70